Time;durP1;ratioP1;P1;durP2;ratioP2;P2;SDS_P1;SDS_P2;PMS_P1;PMS_P2;Temp;Humidity;BMP_temperature;BMP_pressure;BME280_temperature;BME280_humidity;BME280_pressure;Samples;Min_cycle;Max_cycle;Signal;HPM_P1;HPM_P2
2023/01/30 00:02:45;;;;;;;;;;;;;;;-3.72;100.00;96237.69;10528161;28;1966;-71
2023/01/30 00:07:48;;;;;;;;;;;;;;;-3.81;100.00;96236.94;10534621;28;1963;-68
2023/01/30 00:12:51;;;;;;;;;;;;;;;-3.81;100.00;96221.16;10523812;28;1978;-67
2023/01/30 00:17:53;;;;;;;;;;;;;;;-3.84;100.00;96213.63;10528763;28;2074;-69
2023/01/30 00:22:57;;;;;;;;;;;;;;;-3.81;100.00;96206.22;10526381;28;2005;-68
2023/01/30 00:28:02;;;;;;;;;;;;;;;-3.88;100.00;96215.78;10525849;28;2023;-69
2023/01/30 00:33:04;;;;;;;;;;;;;;;-3.92;100.00;96206.59;10525783;28;2130;-69
2023/01/30 00:38:07;;;;;;;;;;;;;;;-3.93;100.00;96202.34;10521971;28;2005;-68
2023/01/30 00:48:29;;;;;;;;;;;;;;;-3.96;100.00;96181.66;10528381;28;2120;-68
2023/01/30 00:53:31;;;;;;;;;;;;;;;-3.94;100.00;96171.81;10528368;28;1982;-68
2023/01/30 00:58:34;;;;;;;;;;;;;;;-4.01;100.00;96167.41;10524833;28;1986;-69
2023/01/30 01:03:36;;;;;;;;;;;;;;;-4.07;100.00;96155.81;10527308;28;2124;-68
2023/01/30 01:08:39;;;;;;;;;;;;;;;-4.09;100.00;96148.09;10528669;28;2095;-68
2023/01/30 01:13:41;;;;;;;;;;;;;;;-4.07;100.00;96142.69;10524056;28;1932;-68
2023/01/30 01:18:43;;;;;;;;;;;;;;;-4.15;100.00;96158.47;10522519;28;1919;-72
2023/01/30 01:23:46;;;;;;;;;;;;;;;-4.22;100.00;96149.66;10518659;28;2012;-69
2023/01/30 01:28:48;;;;;;;;;;;;;;;-4.28;100.00;96147.72;10517046;28;1995;-67
2023/01/30 01:33:50;;;;;;;;;;;;;;;-4.21;100.00;96140.78;10526533;28;2013;-68
2023/01/30 01:38:53;;;;;;;;;;;;;;;-4.27;100.00;96144.09;10526736;28;2087;-68
2023/01/30 01:43:55;;;;;;;;;;;;;;;-4.24;100.00;96141.16;10521956;28;1997;-67
2023/01/30 01:48:58;;;;;;;;;;;;;;;-4.28;100.00;96119.66;10522840;28;2059;-68
2023/01/30 01:54:00;;;;;;;;;;;;;;;-4.30;100.00;96115.59;10523179;28;1988;-67
2023/01/30 01:59:02;;;;;;;;;;;;;;;-4.28;100.00;96124.09;10524063;28;2046;-68
2023/01/30 02:04:07;;;;;;;;;;;;;;;-4.29;100.00;96122.47;10526542;28;2038;-68
2023/01/30 02:09:10;;;;;;;;;;;;;;;-4.26;100.00;96133.44;10521991;28;2019;-68
2023/01/30 02:14:12;;;;;;;;;;;;;;;-4.21;100.00;96130.28;10527333;28;1962;-68
2023/01/30 02:19:14;;;;;;;;;;;;;;;-4.29;100.00;96135.59;10524117;28;2073;-68
2023/01/30 02:24:17;;;;;;;;;;;;;;;-4.33;100.00;96144.78;10524455;28;2018;-69
2023/01/30 02:29:19;;;;;;;;;;;;;;;-4.29;100.00;96138.22;10526291;28;2148;-68
2023/01/30 02:34:22;;;;;;;;;;;;;;;-4.32;100.00;96130.69;10527660;28;1978;-67
2023/01/30 02:39:24;;;;;;;;;;;;;;;-4.29;100.00;96132.97;10535307;28;2108;-70
2023/01/30 02:44:26;;;;;;;;;;;;;;;-4.32;100.00;96136.75;10529631;28;1977;-69
2023/01/30 02:49:29;;;;;;;;;;;;;;;-4.35;100.00;96139.72;10533145;28;2004;-68
2023/01/30 02:54:31;;;;;;;;;;;;;;;-4.29;100.00;96138.22;10535048;28;2037;-69
2023/01/30 02:59:34;;;;;;;;;;;;;;;-4.33;100.00;96148.22;10528934;28;1970;-68
2023/01/30 03:04:36;;;;;;;;;;;;;;;-4.31;100.00;96150.69;10538940;28;1997;-75
2023/01/30 03:09:38;;;;;;;;;;;;;;;-4.37;100.00;96155.63;10535712;28;2110;-73
2023/01/30 03:14:41;;;;;;;;;;;;;;;-4.30;100.00;96153.16;10528240;28;2081;-74
2023/01/30 03:19:43;;;;;;;;;;;;;;;-4.24;100.00;96138.53;10537304;28;1946;-72
2023/01/30 03:24:46;;;;;;;;;;;;;;;-4.26;100.00;96122.09;10526332;28;2344;-75
2023/01/30 03:29:48;;;;;;;;;;;;;;;-4.19;100.00;96112.56;10533250;28;1982;-71
2023/01/30 03:34:50;;;;;;;;;;;;;;;-4.19;100.00;96118.63;10530577;28;1970;-71
2023/01/30 03:39:53;;;;;;;;;;;;;;;-4.08;100.00;96104.28;10535880;28;2028;-69
2023/01/30 03:44:55;;;;;;;;;;;;;;;-4.05;100.00;96095.25;10533741;28;2102;-69
2023/01/30 03:49:57;;;;;;;;;;;;;;;-4.02;100.00;96093.06;10510632;28;2074;-69
2023/01/30 03:55:00;;;;;;;;;;;;;;;-3.97;100.00;96090.75;10531485;28;2006;-67
2023/01/30 04:00:03;;;;;;;;;;;;;;;-3.91;100.00;96100.56;10527709;28;2016;-69
2023/01/30 04:05:05;;;;;;;;;;;;;;;-3.86;100.00;96082.47;10526368;28;2065;-67
2023/01/30 04:10:08;;;;;;;;;;;;;;;-3.89;100.00;96082.81;10532424;28;2038;-68
2023/01/30 04:15:10;;;;;;;;;;;;;;;-3.82;100.00;96114.44;10525752;28;2017;-69
2023/01/30 04:20:13;;;;;;;;;;;;;;;-3.73;100.00;96107.31;10522909;28;1911;-68
2023/01/30 04:25:15;;;;;;;;;;;;;;;-3.74;100.00;96101.25;10523949;28;2109;-66
2023/01/30 04:30:18;;;;;;;;;;;;;;;-3.75;100.00;96101.41;10529690;28;2056;-70
2023/01/30 04:35:21;;;;;;;;;;;;;;;-3.72;100.00;96108.94;10528618;28;2063;-66
2023/01/30 04:40:23;;;;;;;;;;;;;;;-3.76;100.00;96099.78;10525790;28;2085;-67
2023/01/30 04:45:25;;;;;;;;;;;;;;;-3.73;100.00;96067.91;10519653;28;2025;-68
2023/01/30 04:50:29;;;;;;;;;;;;;;;-3.70;100.00;96049.16;10538991;28;2117;-68
2023/01/30 04:55:32;;;;;;;;;;;;;;;-3.80;100.00;96049.44;10513035;28;2015;-68
2023/01/30 05:00:34;;;;;;;;;;;;;;;-3.82;100.00;96051.38;10525104;28;2159;-68
2023/01/30 05:05:37;;;;;;;;;;;;;;;-3.81;100.00;96059.13;10526560;28;1950;-65
2023/01/30 05:10:39;;;;;;;;;;;;;;;-3.87;100.00;96051.94;10525738;28;1985;-68
2023/01/30 05:15:41;;;;;;;;;;;;;;;-3.88;100.00;96018.81;10532236;28;2082;-68
2023/01/30 05:20:44;;;;;;;;;;;;;;;-3.83;100.00;96013.81;10522788;28;2041;-68
2023/01/30 05:25:46;;;;;;;;;;;;;;;-3.78;100.00;96031.66;10523701;28;2413;-69
2023/01/30 05:30:49;;;;;;;;;;;;;;;-3.75;100.00;96030.47;10528259;28;1993;-68
2023/01/30 05:35:51;;;;;;;;;;;;;;;-3.75;100.00;96030.47;10526164;28;1985;-69
2023/01/30 05:40:54;;;;;;;;;;;;;;;-3.62;100.00;96035.97;10522335;28;1870;-69
2023/01/30 05:45:56;;;;;;;;;;;;;;;-3.63;100.00;96023.81;10528416;28;1985;-68
2023/01/30 05:50:59;;;;;;;;;;;;;;;-3.57;100.00;96015.22;10522416;28;2100;-67
2023/01/30 05:56:01;;;;;;;;;;;;;;;-3.48;100.00;96003.63;10524804;28;2020;-67
2023/01/30 06:01:03;;;;;;;;;;;;;;;-3.37;100.00;96012.84;10522697;28;1933;-68
2023/01/30 06:06:05;;;;;;;;;;;;;;;-3.38;100.00;96017.31;10529674;28;2240;-68
2023/01/30 06:11:08;;;;;;;;;;;;;;;-3.26;100.00;96001.91;10521538;28;2082;-68
2023/01/30 06:16:11;;;;;;;;;;;;;;;-3.16;100.00;96005.09;10525337;28;1982;-68
2023/01/30 06:21:14;;;;;;;;;;;;;;;-3.00;100.00;96001.41;10529204;28;1966;-67
2023/01/30 06:26:16;;;;;;;;;;;;;;;-2.93;100.00;96004.94;10521661;28;1959;-68
2023/01/30 06:31:19;;;;;;;;;;;;;;;-3.00;100.00;96009.31;10531516;28;2086;-66
2023/01/30 06:36:34;;;;;;;;;;;;;;;-3.08;100.00;96012.06;10517307;28;1958;-68
2023/01/30 06:41:36;;;;;;;;;;;;;;;-3.04;100.00;96021.22;10524175;28;1958;-69
2023/01/30 06:46:39;;;;;;;;;;;;;;;-3.02;100.00;96016.59;10536634;28;1984;-72
2023/01/30 06:51:41;;;;;;;;;;;;;;;-2.92;100.00;96021.56;10507097;28;1961;-75
2023/01/30 06:56:43;;;;;;;;;;;;;;;-2.75;100.00;96029.06;10520802;28;2222;-67
2023/01/30 07:01:46;;;;;;;;;;;;;;;-2.53;100.00;96029.13;10519799;28;1982;-69
2023/01/30 07:06:48;;;;;;;;;;;;;;;-2.32;100.00;96030.94;10528086;28;2223;-68
2023/01/30 07:11:51;;;;;;;;;;;;;;;-2.03;100.00;96020.31;10525796;28;2027;-68
2023/01/30 07:16:53;;;;;;;;;;;;;;;-1.93;100.00;96012.06;10522666;28;1981;-67
2023/01/30 07:21:55;;;;;;;;;;;;;;;-1.83;100.00;96032.84;10523736;28;2031;-68
2023/01/30 07:26:58;;;;;;;;;;;;;;;-1.76;100.00;96023.16;10528380;28;2180;-73
2023/01/30 07:32:00;;;;;;;;;;;;;;;-1.66;100.00;96019.19;10526166;28;1961;-76
2023/01/30 07:37:03;;;;;;;;;;;;;;;-1.49;100.00;96006.53;10526228;28;2030;-72
2023/01/30 07:42:05;;;;;;;;;;;;;;;-1.51;100.00;96013.84;10527777;28;2033;-74
2023/01/30 07:47:07;;;;;;;;;;;;;;;-1.42;100.00;96003.94;10534679;28;1978;-76
2023/01/30 07:52:10;;;;;;;;;;;;;;;-1.11;100.00;95995.59;10541665;28;2101;-75
2023/01/30 07:57:12;;;;;;;;;;;;;;;-0.90;100.00;95963.00;10533474;28;2087;-75
2023/01/30 08:02:14;;;;;;;;;;;;;;;-0.83;100.00;95951.50;10530778;28;1996;-77
2023/01/30 08:07:17;;;;;;;;;;;;;;;-0.70;100.00;95953.38;10533314;28;1950;-72
2023/01/30 08:12:19;;;;;;;;;;;;;;;-0.63;100.00;95950.75;10528796;28;2113;-72
2023/01/30 08:17:22;;;;;;;;;;;;;;;-0.50;100.00;95944.69;10544451;28;2279;-71
2023/01/30 08:22:26;;;;;;;;;;;;;;;-0.38;100.00;95948.31;10530257;28;2232;-71
2023/01/30 08:27:29;;;;;;;;;;;;;;;-0.51;100.00;95935.91;10534190;28;2285;-72
2023/01/30 08:32:31;;;;;;;;;;;;;;;-0.64;100.00;95941.97;10526880;28;2024;-73
2023/01/30 08:37:34;;;;;;;;;;;;;;;-0.70;100.00;95932.25;10542032;27;1951;-73
2023/01/30 08:42:36;;;;;;;;;;;;;;;-0.69;100.00;95923.31;10514810;28;2113;-72
2023/01/30 08:47:38;;;;;;;;;;;;;;;-0.47;100.00;95920.50;10528333;28;2005;-74
2023/01/30 08:52:41;;;;;;;;;;;;;;;-0.32;100.00;95926.41;10523678;28;2201;-72
2023/01/30 08:57:43;;;;;;;;;;;;;;;-0.10;100.00;95917.28;10526170;28;2065;-72
2023/01/30 09:02:54;;;;;;;;;;;;;;;0.08;100.00;95918.50;10530141;28;2058;-71
2023/01/30 09:07:56;;;;;;;;;;;;;;;-0.09;100.00;95910.97;10529736;28;2060;-72
2023/01/30 09:12:59;;;;;;;;;;;;;;;-0.01;100.00;95913.41;10526610;28;2161;-71
2023/01/30 09:18:01;;;;;;;;;;;;;;;0.06;100.00;95891.44;10532516;28;1950;-71
2023/01/30 09:23:03;;;;;;;;;;;;;;;0.17;100.00;95909.34;10528896;28;2123;-72
2023/01/30 09:28:06;;;;;;;;;;;;;;;0.33;100.00;95903.63;10531575;28;2096;-72
2023/01/30 09:33:09;;;;;;;;;;;;;;;0.44;100.00;95920.69;10531454;28;2018;-72
2023/01/30 09:38:11;;;;;;;;;;;;;;;1.03;100.00;95922.34;10528034;28;1941;-73
2023/01/30 09:43:13;;;;;;;;;;;;;;;1.37;100.00;95894.69;10525076;28;2051;-72
2023/01/30 09:48:16;;;;;;;;;;;;;;;1.67;100.00;95894.91;10521458;28;1985;-72
2023/01/30 09:53:19;;;;;;;;;;;;;;;1.75;100.00;95880.56;10526627;28;1947;-73
2023/01/30 09:58:22;;;;;;;;;;;;;;;1.74;100.00;95861.22;10522101;28;2094;-72
2023/01/30 10:03:24;;;;;;;;;;;;;;;1.63;100.00;95862.72;10526964;28;1988;-72
2023/01/30 10:08:26;;;;;;;;;;;;;;;1.51;100.00;95875.00;10524525;28;1986;-72
2023/01/30 10:13:29;;;;;;;;;;;;;;;1.47;100.00;95889.72;10525573;28;2058;-72
2023/01/30 10:18:31;;;;;;;;;;;;;;;1.40;100.00;95857.19;10527217;28;2014;-72
2023/01/30 10:23:34;;;;;;;;;;;;;;;1.44;100.00;95844.31;10523133;28;2168;-74
2023/01/30 10:28:36;;;;;;;;;;;;;;;1.44;100.00;95831.88;10543671;28;2000;-75
2023/01/30 10:33:39;;;;;;;;;;;;;;;1.57;100.00;95810.56;10521712;28;1959;-75
2023/01/30 10:38:41;;;;;;;;;;;;;;;1.83;100.00;95790.97;10524961;28;2426;-74
2023/01/30 10:43:46;;;;;;;;;;;;;;;2.31;100.00;95806.22;10523628;28;1987;-75
2023/01/30 10:48:49;;;;;;;;;;;;;;;2.74;100.00;95809.81;10512569;28;2043;-75
2023/01/30 10:53:51;;;;;;;;;;;;;;;3.10;100.00;95798.28;10531811;28;1971;-77
2023/01/30 10:58:54;;;;;;;;;;;;;;;3.11;100.00;95794.59;10530771;28;2081;-75
2023/01/30 11:03:57;;;;;;;;;;;;;;;3.38;100.00;95811.00;10538103;28;1916;-74
2023/01/30 11:08:59;;;;;;;;;;;;;;;3.17;100.00;95799.81;10530045;28;1950;-74
2023/01/30 11:14:01;;;;;;;;;;;;;;;3.20;100.00;95778.13;10525515;28;2053;-73
2023/01/30 11:19:04;;;;;;;;;;;;;;;3.28;100.00;95763.69;10538734;28;1928;-73
2023/01/30 11:24:23;;;;;;;;;;;;;;;3.42;100.00;95756.34;10529799;28;2035;-78
2023/01/30 11:29:26;;;;;;;;;;;;;;;3.53;100.00;95736.94;10526713;28;1968;-73
2023/01/30 11:34:28;;;;;;;;;;;;;;;3.38;100.00;95734.75;10532563;28;1962;-74
2023/01/30 11:39:31;;;;;;;;;;;;;;;3.45;100.00;95726.66;10532419;28;2019;-75
2023/01/30 11:44:33;;;;;;;;;;;;;;;3.76;100.00;95723.66;10526642;28;1946;-71
2023/01/30 11:49:36;;;;;;;;;;;;;;;4.08;100.00;95720.63;10512252;28;2095;-72
2023/01/30 11:55:00;;;;;;;;;;;;;;;3.91;100.00;95703.75;10529479;28;2053;-74
2023/01/30 12:00:02;;;;;;;;;;;;;;;3.63;100.00;95705.28;10534690;28;1951;-77
2023/01/30 12:05:05;;;;;;;;;;;;;;;3.46;100.00;95701.69;10531928;28;2046;-74
2023/01/30 12:10:07;;;;;;;;;;;;;;;3.40;100.00;95705.28;10529861;28;1903;-77
2023/01/30 12:15:09;;;;;;;;;;;;;;;3.31;100.00;95696.84;10531597;28;1970;-72
2023/01/30 12:20:12;;;;;;;;;;;;;;;3.24;100.00;95688.97;10529183;28;1974;-70
2023/01/30 12:25:14;;;;;;;;;;;;;;;3.13;100.00;95660.56;10527829;28;1985;-72
2023/01/30 12:30:17;;;;;;;;;;;;;;;3.21;100.00;95662.84;10531358;28;1922;-72
2023/01/30 12:35:19;;;;;;;;;;;;;;;3.14;100.00;95667.47;10527821;28;2026;-73
2023/01/30 12:40:22;;;;;;;;;;;;;;;3.13;100.00;95675.69;10533747;28;1931;-72
2023/01/30 12:45:24;;;;;;;;;;;;;;;3.24;100.00;95649.13;10532373;28;1981;-73
2023/01/30 12:50:27;;;;;;;;;;;;;;;3.35;100.00;95647.50;10541133;28;1879;-72
2023/01/30 12:55:29;;;;;;;;;;;;;;;3.52;100.00;95642.31;10525159;28;1927;-72
2023/01/30 13:00:31;;;;;;;;;;;;;;;3.45;100.00;95657.56;10525846;28;2046;-72
2023/01/30 13:05:34;;;;;;;;;;;;;;;3.40;100.00;95660.91;10527819;28;2066;-73
2023/01/30 13:10:36;;;;;;;;;;;;;;;3.60;100.00;95679.16;10532292;28;1970;-74
2023/01/30 13:15:39;;;;;;;;;;;;;;;3.52;100.00;95661.72;10528925;28;1959;-71
2023/01/30 13:20:41;;;;;;;;;;;;;;;3.44;100.00;95671.91;10539868;28;1993;-72
2023/01/30 13:25:44;;;;;;;;;;;;;;;3.19;100.00;95707.44;10532629;28;2034;-73
2023/01/30 13:30:46;;;;;;;;;;;;;;;3.18;100.00;95700.53;10523330;28;1967;-74
2023/01/30 13:35:48;;;;;;;;;;;;;;;3.30;100.00;95689.88;10521590;28;2029;-73
2023/01/30 13:40:51;;;;;;;;;;;;;;;3.07;100.00;95706.63;10525406;28;1981;-72
2023/01/30 13:45:54;;;;;;;;;;;;;;;3.18;100.00;95716.47;10524933;28;1987;-74
2023/01/30 13:50:56;;;;;;;;;;;;;;;3.12;100.00;95704.09;10505345;28;1994;-73
2023/01/30 13:55:59;;;;;;;;;;;;;;;3.07;100.00;95706.63;10529338;28;1981;-73
2023/01/30 14:01:02;;;;;;;;;;;;;;;3.09;100.00;95696.56;10519878;28;2077;-74
2023/01/30 14:06:04;;;;;;;;;;;;;;;2.98;100.00;95710.63;10527999;28;1966;-73
2023/01/30 14:11:07;;;;;;;;;;;;;;;2.94;100.00;95728.88;10531788;28;1955;-73
2023/01/30 14:16:09;;;;;;;;;;;;;;;2.89;100.00;95738.53;10531446;28;2061;-72
2023/01/30 14:21:12;;;;;;;;;;;;;;;2.81;100.00;95747.63;10540069;28;1954;-71
2023/01/30 14:26:14;;;;;;;;;;;;;;;2.71;100.00;95737.53;10524524;28;2259;-73
2023/01/30 14:31:17;;;;;;;;;;;;;;;2.58;100.00;95777.53;10515437;28;2003;-72
2023/01/30 14:36:19;;;;;;;;;;;;;;;2.56;100.00;95766.34;10541444;28;2124;-73
2023/01/30 14:41:22;;;;;;;;;;;;;;;2.38;100.00;95779.63;10532898;28;1966;-75
2023/01/30 14:46:24;;;;;;;;;;;;;;;2.44;100.00;95776.06;10537979;28;1966;-74
2023/01/30 14:51:26;;;;;;;;;;;;;;;2.41;100.00;95795.06;10534482;28;1930;-74
2023/01/30 14:56:29;;;;;;;;;;;;;;;2.39;100.00;95805.09;10534375;28;1985;-74
2023/01/30 15:01:31;;;;;;;;;;;;;;;2.38;100.00;95808.81;10533012;28;2002;-73
2023/01/30 15:06:34;;;;;;;;;;;;;;;2.26;100.00;95814.03;10534853;28;1958;-76
2023/01/30 15:11:36;;;;;;;;;;;;;;;2.25;100.00;95830.16;10532327;28;1956;-74
2023/01/30 15:16:38;;;;;;;;;;;;;;;2.17;100.00;95837.38;10527743;28;1988;-75
2023/01/30 15:21:41;;;;;;;;;;;;;;;2.05;100.00;95844.44;10528172;28;2137;-74
2023/01/30 15:26:43;;;;;;;;;;;;;;;2.14;100.00;95859.03;10533149;28;1975;-73
2023/01/30 15:31:46;;;;;;;;;;;;;;;2.04;100.00;95861.38;10529617;28;2143;-73
2023/01/30 15:36:48;;;;;;;;;;;;;;;1.96;100.00;95864.28;10531361;28;2048;-72
2023/01/30 15:41:52;;;;;;;;;;;;;;;1.96;100.00;95866.94;10531424;28;2053;-73
2023/01/30 15:46:54;;;;;;;;;;;;;;;2.00;100.00;95873.44;10532266;28;2137;-73
2023/01/30 15:51:56;;;;;;;;;;;;;;;1.93;100.00;95891.22;10529801;28;2173;-75
2023/01/30 15:56:59;;;;;;;;;;;;;;;1.95;100.00;95915.69;10529061;28;2093;-73
2023/01/30 16:02:01;;;;;;;;;;;;;;;1.84;100.00;95922.47;10535245;28;1971;-74
2023/01/30 16:07:04;;;;;;;;;;;;;;;1.80;100.00;95931.09;10532855;28;2123;-73
2023/01/30 16:12:06;;;;;;;;;;;;;;;1.74;100.00;95947.84;10544635;28;1911;-75
2023/01/30 16:17:09;;;;;;;;;;;;;;;1.74;100.00;95953.16;10536276;28;1998;-75
2023/01/30 16:22:11;;;;;;;;;;;;;;;1.66;100.00;95978.06;10525747;28;2072;-73
2023/01/30 16:27:14;;;;;;;;;;;;;;;1.45;100.00;95981.84;10529055;28;1998;-74
2023/01/30 16:32:18;;;;;;;;;;;;;;;1.24;100.00;95980.31;10528473;28;1993;-73
2023/01/30 16:37:20;;;;;;;;;;;;;;;1.18;100.00;95991.72;10524906;28;2077;-75
2023/01/30 16:42:23;;;;;;;;;;;;;;;1.06;100.00;95988.91;10533292;28;1880;-73
2023/01/30 16:47:25;;;;;;;;;;;;;;;1.05;100.00;95984.66;10524367;28;2046;-74
2023/01/30 16:52:28;;;;;;;;;;;;;;;0.97;100.00;95976.94;10527102;28;1930;-75
2023/01/30 16:57:34;;;;;;;;;;;;;;;1.00;100.00;95979.16;10532871;28;2109;-71
2023/01/30 17:02:37;;;;;;;;;;;;;;;1.11;100.00;95996.25;10530308;28;2031;-77
2023/01/30 17:07:39;;;;;;;;;;;;;;;1.11;100.00;96021.91;10528693;28;1935;-74
2023/01/30 17:12:42;;;;;;;;;;;;;;;1.13;100.00;96031.25;10528811;28;1915;-75
2023/01/30 17:17:44;;;;;;;;;;;;;;;1.07;100.00;96046.13;10531294;28;1998;-75
2023/01/30 17:22:46;;;;;;;;;;;;;;;1.04;100.00;96049.22;10529777;28;2125;-75
2023/01/30 17:27:49;;;;;;;;;;;;;;;1.03;100.00;96063.47;10529308;28;1978;-74
2023/01/30 17:32:51;;;;;;;;;;;;;;;1.10;100.00;96076.69;10529171;28;1982;-74
2023/01/30 17:37:54;;;;;;;;;;;;;;;1.11;100.00;96077.50;10529197;28;1954;-74
2023/01/30 17:43:08;;;;;;;;;;;;;;;1.16;100.00;96073.22;10534981;28;1404;-75
2023/01/30 17:48:10;;;;;;;;;;;;;;;0.96;100.00;96075.91;10528700;28;1971;-74
2023/01/30 17:53:14;;;;;;;;;;;;;;;1.02;100.00;96067.13;10529872;28;1922;-73
2023/01/30 17:58:16;;;;;;;;;;;;;;;0.94;100.00;96048.81;10518950;28;2120;-75
2023/01/30 18:03:19;;;;;;;;;;;;;;;0.94;100.00;96069.97;10519498;28;2030;-74
2023/01/30 18:08:21;;;;;;;;;;;;;;;1.04;100.00;96083.63;10519288;28;2132;-72
2023/01/30 18:13:24;;;;;;;;;;;;;;;1.16;100.00;96088.28;10515167;28;2071;-73
2023/01/30 18:18:26;;;;;;;;;;;;;;;1.04;100.00;96082.81;10518031;28;2062;-73
2023/01/30 18:23:29;;;;;;;;;;;;;;;1.11;100.00;96106.63;10521182;28;1931;-73
2023/01/30 18:28:31;;;;;;;;;;;;;;;1.07;100.00;96101.72;10526226;28;2101;-73
2023/01/30 18:33:33;;;;;;;;;;;;;;;1.12;100.00;96119.66;10521272;28;1973;-73
2023/01/30 18:38:36;;;;;;;;;;;;;;;1.15;100.00;96123.75;10518249;28;1965;-70
2023/01/30 18:43:38;;;;;;;;;;;;;;;1.13;100.00;96129.22;10513500;28;2020;-75
2023/01/30 18:48:41;;;;;;;;;;;;;;;1.36;100.00;96131.44;10526085;28;2073;-75
2023/01/30 18:53:43;;;;;;;;;;;;;;;1.44;100.00;96147.09;10523791;28;2054;-74
2023/01/30 18:58:48;;;;;;;;;;;;;;;1.60;100.00;96149.31;10523607;28;2022;-74
2023/01/30 19:03:50;;;;;;;;;;;;;;;1.49;100.00;96131.41;10521370;28;1972;-74
2023/01/30 19:08:53;;;;;;;;;;;;;;;1.36;100.00;96147.31;10522732;28;1930;-76
2023/01/30 19:13:55;;;;;;;;;;;;;;;1.41;100.00;96163.44;10519826;28;2068;-75
2023/01/30 19:18:57;;;;;;;;;;;;;;;1.41;100.00;96152.81;10525115;28;2124;-74
2023/01/30 19:23:59;;;;;;;;;;;;;;;1.43;100.00;96158.72;10528820;28;2172;-74
2023/01/30 19:29:02;;;;;;;;;;;;;;;1.38;100.00;96150.56;10510002;28;1970;-75
2023/01/30 19:34:05;;;;;;;;;;;;;;;1.48;100.00;96174.81;10526991;28;2133;-72
2023/01/30 19:39:07;;;;;;;;;;;;;;;1.52;100.00;96189.25;10519391;28;1919;-74
2023/01/30 19:44:09;;;;;;;;;;;;;;;1.48;100.00;96193.38;10528452;28;2026;-75
2023/01/30 19:49:12;;;;;;;;;;;;;;;1.45;100.00;96193.75;10528012;28;2093;-72
2023/01/30 19:54:14;;;;;;;;;;;;;;;1.48;100.00;96214.56;10521394;28;2169;-74
2023/01/30 19:59:17;;;;;;;;;;;;;;;1.47;100.00;96201.53;10525910;28;1973;-74
2023/01/30 20:04:19;;;;;;;;;;;;;;;1.22;100.00;96199.50;10529852;28;2006;-75
2023/01/30 20:09:22;;;;;;;;;;;;;;;1.24;100.00;96199.28;10529088;28;2002;-74
2023/01/30 20:14:24;;;;;;;;;;;;;;;1.25;100.00;96200.91;10527158;28;1951;-74
2023/01/30 20:19:27;;;;;;;;;;;;;;;1.32;100.00;96177.88;10531011;28;1974;-74
2023/01/30 20:24:29;;;;;;;;;;;;;;;1.38;100.00;96197.44;10527667;28;1989;-72
2023/01/30 20:29:31;;;;;;;;;;;;;;;1.44;100.00;96192.13;10523256;28;2122;-72
2023/01/30 20:34:33;;;;;;;;;;;;;;;1.42;100.00;96194.19;10528645;28;2159;-73
2023/01/30 20:39:36;;;;;;;;;;;;;;;1.46;100.00;96195.38;10522978;28;1963;-73
2023/01/30 20:44:38;;;;;;;;;;;;;;;1.48;100.00;96181.97;10514870;28;1939;-72
2023/01/30 20:49:41;;;;;;;;;;;;;;;1.47;100.00;96183.78;10524194;28;2109;-73
2023/01/30 20:54:43;;;;;;;;;;;;;;;1.49;100.00;96178.28;10528794;28;1966;-75
2023/01/30 20:59:46;;;;;;;;;;;;;;;1.44;100.00;96197.44;10529810;28;1989;-71
2023/01/30 21:04:48;;;;;;;;;;;;;;;1.46;100.00;96208.63;10526772;28;2030;-73
2023/01/30 21:09:50;;;;;;;;;;;;;;;1.50;100.00;96186.00;10524638;28;2031;-71
2023/01/30 21:14:53;;;;;;;;;;;;;;;1.47;100.00;96202.34;10521124;28;2042;-73
2023/01/30 21:19:55;;;;;;;;;;;;;;;1.47;100.00;96181.16;10523687;28;1926;-72
2023/01/30 21:24:57;;;;;;;;;;;;;;;1.52;100.00;96199.84;10522947;28;1986;-72
2023/01/30 21:30:00;;;;;;;;;;;;;;;1.41;100.00;96197.84;10529417;28;1991;-73
2023/01/30 21:35:03;;;;;;;;;;;;;;;1.50;100.00;96215.16;10529735;28;2004;-74
2023/01/30 21:45:25;;;;;;;;;;;;;;;1.45;100.00;96220.25;10528861;28;2035;-72
2023/01/30 21:50:27;;;;;;;;;;;;;;;1.35;100.00;96233.94;10524818;28;2034;-71
2023/01/30 21:55:30;;;;;;;;;;;;;;;1.40;100.00;96233.31;10528551;28;1966;-73
2023/01/30 22:00:32;;;;;;;;;;;;;;;1.33;100.00;96237.78;10524394;28;1923;-72
2023/01/30 22:05:34;;;;;;;;;;;;;;;1.37;100.00;96254.91;10524535;28;2041;-71
2023/01/30 22:10:38;;;;;;;;;;;;;;;1.31;100.00;96253.06;10523765;28;2090;-71
2023/01/30 22:15:40;;;;;;;;;;;;;;;1.23;100.00;96258.56;10520592;28;2024;-72
2023/01/30 22:20:42;;;;;;;;;;;;;;;1.32;100.00;96268.75;10516963;28;1966;-73
2023/01/30 22:25:45;;;;;;;;;;;;;;;1.27;100.00;96255.31;10525931;28;2136;-73
2023/01/30 22:30:47;;;;;;;;;;;;;;;1.26;100.00;96250.22;10523944;28;1922;-71
2023/01/30 22:35:49;;;;;;;;;;;;;;;1.28;100.00;96266.72;10522730;28;1986;-71
2023/01/30 22:40:52;;;;;;;;;;;;;;;1.27;100.00;96259.78;10528570;28;1982;-72
2023/01/30 22:45:54;;;;;;;;;;;;;;;1.31;100.00;96271.63;10522658;28;2061;-72
2023/01/30 22:50:56;;;;;;;;;;;;;;;1.28;100.00;96266.72;10525258;28;2044;-72
2023/01/30 22:55:59;;;;;;;;;;;;;;;1.33;100.00;96269.56;10530722;28;2034;-72
2023/01/30 23:01:01;;;;;;;;;;;;;;;1.28;100.00;96261.44;10532736;28;2030;-71
2023/01/30 23:06:03;;;;;;;;;;;;;;;1.32;100.00;96267.94;10539881;28;2018;-73
2023/01/30 23:11:06;;;;;;;;;;;;;;;1.23;100.00;96264.69;10531795;28;1986;-73
2023/01/30 23:16:08;;;;;;;;;;;;;;;1.23;100.00;96277.94;10531035;28;2037;-74
2023/01/30 23:21:11;;;;;;;;;;;;;;;1.23;100.00;96274.47;10528358;28;1997;-73
2023/01/30 23:26:13;;;;;;;;;;;;;;;1.26;100.00;96285.44;10532650;28;2086;-72
2023/01/30 23:31:16;;;;;;;;;;;;;;;1.33;100.00;96280.16;10522445;28;2002;-74
2023/01/30 23:36:18;;;;;;;;;;;;;;;1.36;100.00;96282.41;10540668;28;1978;-72
2023/01/30 23:41:21;;;;;;;;;;;;;;;1.33;100.00;96293.41;10525072;28;1986;-72
2023/01/30 23:46:23;;;;;;;;;;;;;;;1.31;100.00;96295.44;10527893;28;2228;-72
2023/01/30 23:51:25;;;;;;;;;;;;;;;1.32;100.00;96307.66;10524646;28;1915;-71
2023/01/30 23:56:30;;;;;;;;;;;;;;;1.33;100.00;96309.28;10528259;28;1994;-72
